Current | Forecast
Updated: 2:30 AM JST on June 20, 2018
Observed at Nagoya / Chubu, Japan
Temperature 70°F
Humidity 94%
Dew Point 68°F
Wind SE at 17 mph
Pressure 29.68 in (Steady)
Conditions Light Rain
Visibility 3.7 miles
UV 0 out of 16
Clouds (FEW) : 500 ft
Scattered Clouds (SCT) : 1200 ft
Mostly Cloudy (BKN) : 3500 ft
Yesterday's Maximum 79°F
Yesterday's Minimum 70°F approx.
Yesterday's Cooling Degree Days 9 approx.
Sunrise4:36 AM JST
Sunset7:05 PM JST
Moon Rise11:26 AM JST
Moon Set
Moon PhaseMoon Phase
Waxing Crescent
Raw METARMETAR RJGG 191730Z 13015KT 6000 -RA FEW005 SCT012 BKN035 21/20 Q1005 BECMG FEW005 BKN008


Monday
. High: 75° F.
Tuesday
. High: 73° F.
Wednesday
. High: 73° F.
Thursday
. High: 73° F.
Friday
. High: 75° F.
Saturday
. High: 78° F.
Sunday
. High: 78° F.
Monday
. High: 80° F.

Units: English | Metric

Find the Weather for any City, State or Zipcode, or Country:

U.S. State List | Severe Weather | Tropical Storms | Ski Conditions
United States | Canada | Central America | South America | Asia | Europe | Australia | Africa | Islands

Weather Underground

© Copyright 2018
The Weather Company, LLC